Terminal Aerodrome Forecast
Issued by NWS

Home | Current Version | Previous Version | Text Only | Print | Product List | Glossary On
Versions: 1 2 3 4 5 6 7 8 9 10 11 12 13 14
000
FTUS46 KSGX 181100
TAFONT
TAF
KONT 181123Z 1812/1918 VRB04KT P6SM OVC020
     FM181900 25010KT P6SM SCT025 BKN120
     FM190400 VRB04KT P6SM BKN018
     FM191700 VRB04KT P6SM SCT020=

USA.gov is the U.S. government's official web portal to all federal, state and local government web resources and services.